Zarechensk — ONGC — position and weather

sailwx.info

Track history (hours):
 
Tides and Currents Weather Stations Pressure Air Temp Water Temp Dewpoint Dewpoint Depression Visibility Wind Speed Wind Dir Waves Ship Positions

Zarechensk

Last reported at 2014-Dec-19 21:27 UTC. Time now 2014-Dec-22 09:13 UTC.
Position N 40°57' E 028°59'.

Length 180 m; draft 5.9 m.

MMSI: 205561000.

Date/timePositionNaut miles runAvg speedWind from/ knotsBaromVisibWave heightAir tempDewpointWater temp
2014-Dec-19 21:27N 40°57' E 028°59'6 6.6
2014-Dec-19 20:33N 40°51' E 029°01'4 2.9
2014-Dec-19 19:20N 40°50' E 028°57'2 1.7
2014-Dec-19 18:23N 40°50' E 028°54'1 0.2
2014-Dec-19 10:14N 40°49' E 028°54'3 3.9
2014-Dec-19 09:31N 40°49' E 028°50'23010.4
2014-Dec-18 11:26N 37°46' E 025°50'1213.3
2014-Dec-18 10:32N 37°34' E 025°52'1313.0
2014-Dec-18 09:32N 37°22' E 025°57'1313.0
2014-Dec-18 08:33N 37°10' E 026°04'1313.4
2014-Dec-18 07:33N 36°59' E 026°12'1613.0
2014-Dec-18 06:19N 36°47' E 026°25'1012.8
2014-Dec-18 05:33N 36°39' E 026°33'1313.5
2014-Dec-18 04:33N 36°29' E 026°44'1512.9
2014-Dec-18 03:22N 36°17' E 026°56'30113.2
2014-Dec-17 04:34N 34°24' E 032°38'1313.3
2014-Dec-17 03:33N 34°20' E 032°53'1313.2
2014-Dec-17 02:33N 34°17' E 033°09'  
Track history (hours):
 
Tides and Currents Weather Stations Pressure Air Temp Water Temp Dewpoint Dewpoint Depression Visibility Wind Speed Wind Dir Waves Ship Positions

Zarechensk

Last reported at 2014-Dec-19 21:27 UTC. Time now 2014-Dec-22 09:13 UTC.
Position N 40°57' E 028°59'.

Length 180 m; draft 5.9 m.

MMSI: 205561000.

Date/timePositionNaut miles runAvg speedWind from/ knotsBaromVisibWave heightAir tempDewpointWater temp
2014-Dec-19 21:27N 40°57' E 028°59'6 6.6
2014-Dec-19 20:33N 40°51' E 029°01'4 2.9
2014-Dec-19 19:20N 40°50' E 028°57'2 1.7
2014-Dec-19 18:23N 40°50' E 028°54'1 0.2
2014-Dec-19 10:14N 40°49' E 028°54'3 3.9
2014-Dec-19 09:31N 40°49' E 028°50'23010.4
2014-Dec-18 11:26N 37°46' E 025°50'1213.3
2014-Dec-18 10:32N 37°34' E 025°52'1313.0
2014-Dec-18 09:32N 37°22' E 025°57'1313.0
2014-Dec-18 08:33N 37°10' E 026°04'1313.4
2014-Dec-18 07:33N 36°59' E 026°12'1613.0
2014-Dec-18 06:19N 36°47' E 026°25'1012.8
2014-Dec-18 05:33N 36°39' E 026°33'1313.5
2014-Dec-18 04:33N 36°29' E 026°44'1512.9
2014-Dec-18 03:22N 36°17' E 026°56'30113.2
2014-Dec-17 04:34N 34°24' E 032°38'1313.3
2014-Dec-17 03:33N 34°20' E 032°53'1313.2
2014-Dec-17 02:33N 34°17' E 033°09'  

Dump ship's entire track history